sensor_id;sensor_type;location;lat;lon;timestamp;pressure;altitude;pressure_sealevel;temperature;humidity
69127;BME280;56688;50.234;19.292;2023-05-23T00:00:58;98252.98;;;11.29;73.77
69127;BME280;56688;50.234;19.292;2023-05-23T00:03:26;98247.66;;;11.27;74.31
69127;BME280;56688;50.234;19.292;2023-05-23T00:05:53;98242.67;;;11.26;74.21
69127;BME280;56688;50.234;19.292;2023-05-23T00:08:22;98239.05;;;11.26;74.28
69127;BME280;56688;50.234;19.292;2023-05-23T00:10:49;98235.43;;;11.27;74.11
69127;BME280;56688;50.234;19.292;2023-05-23T00:13:16;98230.84;;;11.26;74.41
69127;BME280;56688;50.234;19.292;2023-05-23T00:15:44;98234.42;;;11.28;74.18
69127;BME280;56688;50.234;19.292;2023-05-23T00:18:11;98229.30;;;11.26;74.09
69127;BME280;56688;50.234;19.292;2023-05-23T00:20:40;98232.02;;;11.23;74.12
69127;BME280;56688;50.234;19.292;2023-05-23T00:23:07;98228.73;;;11.20;74.32
69127;BME280;56688;50.234;19.292;2023-05-23T00:25:35;98228.19;;;11.15;74.33
69127;BME280;56688;50.234;19.292;2023-05-23T00:28:03;98229.40;;;11.11;74.46
69127;BME280;56688;50.234;19.292;2023-05-23T00:30:32;98229.92;;;11.07;74.66
69127;BME280;56688;50.234;19.292;2023-05-23T00:33:00;98223.33;;;11.04;74.80
69127;BME280;56688;50.234;19.292;2023-05-23T00:35:27;98221.83;;;11.04;74.74
69127;BME280;56688;50.234;19.292;2023-05-23T00:37:54;98222.52;;;11.03;74.82
69127;BME280;56688;50.234;19.292;2023-05-23T00:40:22;98224.20;;;11.01;74.57
69127;BME280;56688;50.234;19.292;2023-05-23T00:42:49;98224.56;;;10.96;74.41
69127;BME280;56688;50.234;19.292;2023-05-23T00:45:16;98224.08;;;10.92;74.31
69127;BME280;56688;50.234;19.292;2023-05-23T00:47:44;98224.16;;;10.87;74.85
69127;BME280;56688;50.234;19.292;2023-05-23T00:50:13;98223.92;;;10.81;74.98
69127;BME280;56688;50.234;19.292;2023-05-23T00:52:42;98222.34;;;10.75;74.86
69127;BME280;56688;50.234;19.292;2023-05-23T00:55:11;98221.72;;;10.69;74.72
69127;BME280;56688;50.234;19.292;2023-05-23T00:57:40;98220.24;;;10.65;75.24
69127;BME280;56688;50.234;19.292;2023-05-23T01:00:11;98217.77;;;10.64;75.46
69127;BME280;56688;50.234;19.292;2023-05-23T01:02:43;98220.89;;;10.63;75.72
69127;BME280;56688;50.234;19.292;2023-05-23T01:05:12;98220.22;;;10.60;75.98
69127;BME280;56688;50.234;19.292;2023-05-23T01:07:40;98219.22;;;10.52;75.79
69127;BME280;56688;50.234;19.292;2023-05-23T01:10:08;98218.62;;;10.43;75.78
69127;BME280;56688;50.234;19.292;2023-05-23T01:12:52;98217.31;;;10.33;75.93
69127;BME280;56688;50.234;19.292;2023-05-23T01:15:26;98213.24;;;10.20;76.19
69127;BME280;56688;50.234;19.292;2023-05-23T01:20:31;98221.92;;;10.13;76.45
69127;BME280;56688;50.234;19.292;2023-05-23T01:23:10;98222.48;;;10.12;76.35
69127;BME280;56688;50.234;19.292;2023-05-23T01:28:11;98214.95;;;10.05;76.40
69127;BME280;56688;50.234;19.292;2023-05-23T01:30:39;98212.16;;;9.97;75.92
69127;BME280;56688;50.234;19.292;2023-05-23T01:33:07;98212.89;;;9.88;76.20
69127;BME280;56688;50.234;19.292;2023-05-23T01:35:36;98217.32;;;9.82;76.36
69127;BME280;56688;50.234;19.292;2023-05-23T01:38:04;98212.11;;;9.74;76.57
69127;BME280;56688;50.234;19.292;2023-05-23T01:40:31;98212.27;;;9.65;76.40
69127;BME280;56688;50.234;19.292;2023-05-23T01:42:58;98210.70;;;9.61;75.99
69127;BME280;56688;50.234;19.292;2023-05-23T01:45:27;98211.16;;;9.54;75.51
69127;BME280;56688;50.234;19.292;2023-05-23T01:47:55;98211.13;;;9.47;76.13
69127;BME280;56688;50.234;19.292;2023-05-23T01:50:24;98211.69;;;9.42;76.47
69127;BME280;56688;50.234;19.292;2023-05-23T01:52:52;98213.86;;;9.36;76.68
69127;BME280;56688;50.234;19.292;2023-05-23T01:55:21;98216.64;;;9.29;76.55
69127;BME280;56688;50.234;19.292;2023-05-23T01:57:50;98219.05;;;9.17;76.54
69127;BME280;56688;50.234;19.292;2023-05-23T02:00:18;98221.77;;;9.08;76.69
69127;BME280;56688;50.234;19.292;2023-05-23T02:02:46;98218.36;;;9.01;76.44
69127;BME280;56688;50.234;19.292;2023-05-23T02:05:14;98220.95;;;8.96;76.15
69127;BME280;56688;50.234;19.292;2023-05-23T02:07:41;98222.66;;;8.89;76.00
69127;BME280;56688;50.234;19.292;2023-05-23T02:10:09;98219.89;;;8.81;75.98
69127;BME280;56688;50.234;19.292;2023-05-23T02:12:36;98218.61;;;8.74;76.21
69127;BME280;56688;50.234;19.292;2023-05-23T02:15:04;98217.77;;;8.65;76.58
69127;BME280;56688;50.234;19.292;2023-05-23T02:17:31;98218.85;;;8.57;77.28
69127;BME280;56688;50.234;19.292;2023-05-23T02:19:58;98217.72;;;8.50;77.01
69127;BME280;56688;50.234;19.292;2023-05-23T02:22:25;98216.89;;;8.44;77.18
69127;BME280;56688;50.234;19.292;2023-05-23T02:24:52;98217.12;;;8.41;77.58
69127;BME280;56688;50.234;19.292;2023-05-23T02:27:20;98218.83;;;8.37;77.35
69127;BME280;56688;50.234;19.292;2023-05-23T02:29:47;98218.28;;;8.33;77.81
69127;BME280;56688;50.234;19.292;2023-05-23T02:32:14;98219.95;;;8.29;77.83
69127;BME280;56688;50.234;19.292;2023-05-23T02:34:41;98220.25;;;8.26;78.08
69127;BME280;56688;50.234;19.292;2023-05-23T02:37:08;98218.80;;;8.21;78.09
69127;BME280;56688;50.234;19.292;2023-05-23T02:39:36;98218.86;;;8.18;78.40
69127;BME280;56688;50.234;19.292;2023-05-23T02:42:03;98217.52;;;8.16;78.48
69127;BME280;56688;50.234;19.292;2023-05-23T02:44:30;98212.05;;;8.14;78.37
69127;BME280;56688;50.234;19.292;2023-05-23T02:46:58;98209.88;;;8.14;78.51
69127;BME280;56688;50.234;19.292;2023-05-23T02:49:24;98210.75;;;8.13;78.21
69127;BME280;56688;50.234;19.292;2023-05-23T02:51:51;98209.61;;;8.11;77.97
69127;BME280;56688;50.234;19.292;2023-05-23T02:54:19;98206.75;;;8.06;77.38
69127;BME280;56688;50.234;19.292;2023-05-23T02:56:46;98206.95;;;8.01;78.12
69127;BME280;56688;50.234;19.292;2023-05-23T02:59:13;98206.83;;;7.98;77.99
69127;BME280;56688;50.234;19.292;2023-05-23T03:01:40;98210.08;;;7.95;78.00
69127;BME280;56688;50.234;19.292;2023-05-23T03:04:07;98205.23;;;7.94;78.36
69127;BME280;56688;50.234;19.292;2023-05-23T03:06:34;98205.55;;;7.95;78.61
69127;BME280;56688;50.234;19.292;2023-05-23T03:09:02;98201.82;;;7.95;78.59
69127;BME280;56688;50.234;19.292;2023-05-23T03:11:29;98201.52;;;7.96;79.10
69127;BME280;56688;50.234;19.292;2023-05-23T03:13:58;98203.15;;;8.01;78.98
69127;BME280;56688;50.234;19.292;2023-05-23T03:16:25;98203.42;;;8.00;78.30
69127;BME280;56688;50.234;19.292;2023-05-23T03:18:52;98203.42;;;7.97;78.42
69127;BME280;56688;50.234;19.292;2023-05-23T03:21:19;98204.81;;;7.95;78.62
69127;BME280;56688;50.234;19.292;2023-05-23T03:24:02;98206.04;;;7.96;78.55
69127;BME280;56688;50.234;19.292;2023-05-23T03:26:29;98198.44;;;7.94;78.75
69127;BME280;56688;50.234;19.292;2023-05-23T03:28:56;98200.96;;;7.96;79.05
69127;BME280;56688;50.234;19.292;2023-05-23T03:31:23;98195.19;;;7.97;79.39
69127;BME280;56688;50.234;19.292;2023-05-23T03:33:50;98194.08;;;8.02;79.87
69127;BME280;56688;50.234;19.292;2023-05-23T03:36:17;98199.50;;;8.06;79.78
69127;BME280;56688;50.234;19.292;2023-05-23T03:38:44;98197.20;;;8.10;79.49
69127;BME280;56688;50.234;19.292;2023-05-23T03:41:11;98197.66;;;8.16;79.67
69127;BME280;56688;50.234;19.292;2023-05-23T03:43:38;98196.50;;;8.22;80.09
69127;BME280;56688;50.234;19.292;2023-05-23T03:46:05;98197.73;;;8.30;79.98
69127;BME280;56688;50.234;19.292;2023-05-23T03:48:32;98201.64;;;8.38;80.16
69127;BME280;56688;50.234;19.292;2023-05-23T03:50:59;98199.30;;;8.46;80.38
69127;BME280;56688;50.234;19.292;2023-05-23T03:53:27;98198.63;;;8.55;80.49
69127;BME280;56688;50.234;19.292;2023-05-23T03:55:54;98198.73;;;8.66;80.70
69127;BME280;56688;50.234;19.292;2023-05-23T03:58:21;98199.71;;;8.78;80.76
69127;BME280;56688;50.234;19.292;2023-05-23T04:00:50;98199.02;;;8.89;80.50
69127;BME280;56688;50.234;19.292;2023-05-23T04:03:20;98196.45;;;9.00;80.51
69127;BME280;56688;50.234;19.292;2023-05-23T04:05:48;98191.00;;;9.13;80.36
69127;BME280;56688;50.234;19.292;2023-05-23T04:08:16;98193.25;;;9.26;80.16
69127;BME280;56688;50.234;19.292;2023-05-23T04:10:44;98187.15;;;9.38;79.97
69127;BME280;56688;50.234;19.292;2023-05-23T04:13:11;98190.10;;;9.54;79.86
69127;BME280;56688;50.234;19.292;2023-05-23T04:15:39;98188.21;;;9.66;79.57
69127;BME280;56688;50.234;19.292;2023-05-23T04:18:10;98186.84;;;9.75;79.43
69127;BME280;56688;50.234;19.292;2023-05-23T04:20:37;98185.04;;;9.88;79.46
69127;BME280;56688;50.234;19.292;2023-05-23T04:23:04;98185.44;;;10.02;79.61
69127;BME280;56688;50.234;19.292;2023-05-23T04:25:33;98188.92;;;10.20;79.42
69127;BME280;56688;50.234;19.292;2023-05-23T04:28:10;98188.11;;;10.39;79.47
69127;BME280;56688;50.234;19.292;2023-05-23T04:30:37;98189.48;;;10.62;79.47
69127;BME280;56688;50.234;19.292;2023-05-23T04:33:05;98185.44;;;10.86;79.37
69127;BME280;56688;50.234;19.292;2023-05-23T04:35:33;98179.83;;;11.11;79.16
69127;BME280;56688;50.234;19.292;2023-05-23T04:38:06;98181.08;;;11.36;78.81
69127;BME280;56688;50.234;19.292;2023-05-23T04:40:33;98182.17;;;11.61;78.18
69127;BME280;56688;50.234;19.292;2023-05-23T04:43:07;98174.01;;;11.89;77.29
69127;BME280;56688;50.234;19.292;2023-05-23T04:45:44;98173.08;;;12.23;76.52
69127;BME280;56688;50.234;19.292;2023-05-23T04:48:25;98171.78;;;12.69;75.53
69127;BME280;56688;50.234;19.292;2023-05-23T04:50:55;98169.60;;;13.21;74.47
69127;BME280;56688;50.234;19.292;2023-05-23T04:53:23;98166.70;;;13.79;72.35
69127;BME280;56688;50.234;19.292;2023-05-23T04:55:50;98163.14;;;14.39;70.00
69127;BME280;56688;50.234;19.292;2023-05-23T04:58:17;98166.29;;;15.00;67.95
69127;BME280;56688;50.234;19.292;2023-05-23T05:00:44;98165.44;;;15.61;66.23
69127;BME280;56688;50.234;19.292;2023-05-23T05:03:13;98159.70;;;16.23;63.23
69127;BME280;56688;50.234;19.292;2023-05-23T05:05:43;98153.88;;;16.84;61.81
69127;BME280;56688;50.234;19.292;2023-05-23T05:08:10;98154.64;;;17.44;59.02
69127;BME280;56688;50.234;19.292;2023-05-23T05:10:40;98149.10;;;18.08;55.97
69127;BME280;56688;50.234;19.292;2023-05-23T05:13:08;98148.15;;;18.70;53.46
69127;BME280;56688;50.234;19.292;2023-05-23T05:15:43;98156.61;;;19.33;51.62
69127;BME280;56688;50.234;19.292;2023-05-23T05:18:11;98155.78;;;19.81;50.57
69127;BME280;56688;50.234;19.292;2023-05-23T05:20:39;98150.52;;;20.30;48.75
69127;BME280;56688;50.234;19.292;2023-05-23T05:23:07;98151.28;;;20.70;47.68
69127;BME280;56688;50.234;19.292;2023-05-23T05:25:36;98149.89;;;21.06;46.24
69127;BME280;56688;50.234;19.292;2023-05-23T05:28:03;98147.54;;;21.37;46.15
69127;BME280;56688;50.234;19.292;2023-05-23T05:30:36;98136.59;;;21.58;44.80
69127;BME280;56688;50.234;19.292;2023-05-23T05:33:04;98145.11;;;21.77;44.36
69127;BME280;56688;50.234;19.292;2023-05-23T05:35:32;98140.43;;;21.81;44.30
69127;BME280;56688;50.234;19.292;2023-05-23T05:38:00;98140.29;;;21.86;44.17
69127;BME280;56688;50.234;19.292;2023-05-23T05:40:31;98140.71;;;21.96;44.92
69127;BME280;56688;50.234;19.292;2023-05-23T05:43:00;98140.27;;;22.07;44.30
69127;BME280;56688;50.234;19.292;2023-05-23T05:45:27;98137.88;;;22.20;43.99
69127;BME280;56688;50.234;19.292;2023-05-23T05:47:54;98138.97;;;22.33;43.72
69127;BME280;56688;50.234;19.292;2023-05-23T05:50:22;98143.91;;;22.50;43.43
69127;BME280;56688;50.234;19.292;2023-05-23T05:52:50;98142.89;;;22.75;43.57
69127;BME280;56688;50.234;19.292;2023-05-23T05:55:17;98140.34;;;23.13;42.91
69127;BME280;56688;50.234;19.292;2023-05-23T05:57:47;98140.20;;;23.61;41.76
69127;BME280;56688;50.234;19.292;2023-05-23T06:00:15;98137.14;;;23.95;41.71
69127;BME280;56688;50.234;19.292;2023-05-23T06:02:45;98134.02;;;24.33;40.24
69127;BME280;56688;50.234;19.292;2023-05-23T06:05:16;98129.31;;;24.75;39.68
69127;BME280;56688;50.234;19.292;2023-05-23T06:07:47;98129.04;;;25.15;38.70
69127;BME280;56688;50.234;19.292;2023-05-23T06:10:14;98124.98;;;25.63;37.53
69127;BME280;56688;50.234;19.292;2023-05-23T06:12:41;98118.33;;;26.13;36.91
69127;BME280;56688;50.234;19.292;2023-05-23T06:15:08;98116.00;;;26.64;36.67
69127;BME280;56688;50.234;19.292;2023-05-23T06:17:36;98115.09;;;27.24;35.22
69127;BME280;56688;50.234;19.292;2023-05-23T06:20:03;98116.31;;;27.85;34.20
69127;BME280;56688;50.234;19.292;2023-05-23T06:22:31;98110.82;;;28.33;33.23
69127;BME280;56688;50.234;19.292;2023-05-23T06:24:58;98103.99;;;28.83;32.13
69127;BME280;56688;50.234;19.292;2023-05-23T06:27:25;98102.70;;;29.26;32.90
69127;BME280;56688;50.234;19.292;2023-05-23T06:29:52;98099.83;;;29.59;32.21
69127;BME280;56688;50.234;19.292;2023-05-23T06:32:20;98101.43;;;29.88;31.84
69127;BME280;56688;50.234;19.292;2023-05-23T06:34:47;98104.86;;;30.21;31.48
69127;BME280;56688;50.234;19.292;2023-05-23T06:37:14;98100.27;;;30.33;31.32
69127;BME280;56688;50.234;19.292;2023-05-23T06:39:42;98099.10;;;30.33;30.06
69127;BME280;56688;50.234;19.292;2023-05-23T06:42:09;98095.73;;;30.17;30.07
69127;BME280;56688;50.234;19.292;2023-05-23T06:44:55;98092.90;;;30.37;29.32
69127;BME280;56688;50.234;19.292;2023-05-23T06:47:23;98095.56;;;30.61;30.50
69127;BME280;56688;50.234;19.292;2023-05-23T06:49:50;98092.67;;;30.66;29.28
69127;BME280;56688;50.234;19.292;2023-05-23T06:52:17;98085.52;;;30.94;29.27
69127;BME280;56688;50.234;19.292;2023-05-23T06:54:44;98086.55;;;31.40;28.67
69127;BME280;56688;50.234;19.292;2023-05-23T06:57:12;98087.00;;;31.76;28.52
69127;BME280;56688;50.234;19.292;2023-05-23T06:59:39;98088.02;;;31.60;28.01
69127;BME280;56688;50.234;19.292;2023-05-23T07:02:06;98085.36;;;31.40;28.26
69127;BME280;56688;50.234;19.292;2023-05-23T07:04:33;98077.87;;;31.24;28.95
69127;BME280;56688;50.234;19.292;2023-05-23T07:07:03;98080.07;;;31.40;28.13
69127;BME280;56688;50.234;19.292;2023-05-23T07:09:30;98076.23;;;31.73;28.24
69127;BME280;56688;50.234;19.292;2023-05-23T07:12:05;98079.13;;;32.07;28.56
69127;BME280;56688;50.234;19.292;2023-05-23T07:14:34;98075.23;;;32.41;27.39
69127;BME280;56688;50.234;19.292;2023-05-23T07:17:01;98071.05;;;32.68;27.16
69127;BME280;56688;50.234;19.292;2023-05-23T07:19:28;98067.10;;;32.88;26.90
69127;BME280;56688;50.234;19.292;2023-05-23T07:21:55;98066.64;;;33.05;26.27
69127;BME280;56688;50.234;19.292;2023-05-23T07:24:22;98064.15;;;33.28;26.12
69127;BME280;56688;50.234;19.292;2023-05-23T07:26:53;98063.35;;;33.67;25.50
69127;BME280;56688;50.234;19.292;2023-05-23T07:29:20;98064.88;;;34.05;25.23
69127;BME280;56688;50.234;19.292;2023-05-23T07:31:48;98059.13;;;34.50;24.82
69127;BME280;56688;50.234;19.292;2023-05-23T07:34:15;98058.14;;;34.98;23.87
69127;BME280;56688;50.234;19.292;2023-05-23T07:36:49;98056.60;;;35.40;23.28
69127;BME280;56688;50.234;19.292;2023-05-23T07:39:17;98059.20;;;35.42;23.52
69127;BME280;56688;50.234;19.292;2023-05-23T07:41:51;98054.91;;;35.60;23.34
69127;BME280;56688;50.234;19.292;2023-05-23T07:44:18;98055.04;;;35.85;23.10
69127;BME280;56688;50.234;19.292;2023-05-23T07:46:49;98053.58;;;36.19;22.61
69127;BME280;56688;50.234;19.292;2023-05-23T07:49:17;98053.98;;;36.48;21.77
69127;BME280;56688;50.234;19.292;2023-05-23T07:51:44;98055.98;;;36.49;22.21
69127;BME280;56688;50.234;19.292;2023-05-23T07:54:11;98050.70;;;36.61;22.55
69127;BME280;56688;50.234;19.292;2023-05-23T07:56:42;98051.02;;;36.75;22.23
69127;BME280;56688;50.234;19.292;2023-05-23T07:59:09;98046.30;;;36.95;21.33
69127;BME280;56688;50.234;19.292;2023-05-23T08:01:36;98043.98;;;37.10;21.09
69127;BME280;56688;50.234;19.292;2023-05-23T08:04:05;98037.46;;;37.31;21.39
69127;BME280;56688;50.234;19.292;2023-05-23T08:06:44;98034.55;;;37.43;21.89
69127;BME280;56688;50.234;19.292;2023-05-23T08:09:37;98032.88;;;37.43;21.00
69127;BME280;56688;50.234;19.292;2023-05-23T08:12:05;98030.64;;;37.23;21.43
69127;BME280;56688;50.234;19.292;2023-05-23T08:14:32;98033.88;;;37.11;21.83
69127;BME280;56688;50.234;19.292;2023-05-23T08:17:22;98035.90;;;37.07;21.26
69127;BME280;56688;50.234;19.292;2023-05-23T08:19:50;98040.48;;;37.06;20.95
69127;BME280;56688;50.234;19.292;2023-05-23T08:22:17;98035.27;;;37.08;21.50
69127;BME280;56688;50.234;19.292;2023-05-23T08:24:44;98030.75;;;37.04;20.69
69127;BME280;56688;50.234;19.292;2023-05-23T08:27:11;98026.95;;;37.10;21.94
69127;BME280;56688;50.234;19.292;2023-05-23T08:29:38;98025.00;;;37.34;22.01
69127;BME280;56688;50.234;19.292;2023-05-23T08:32:05;98024.68;;;37.29;21.33
69127;BME280;56688;50.234;19.292;2023-05-23T08:34:32;98024.19;;;37.23;21.13
69127;BME280;56688;50.234;19.292;2023-05-23T08:36:59;98026.61;;;37.30;21.14
69127;BME280;56688;50.234;19.292;2023-05-23T08:39:27;98022.48;;;37.54;21.47
69127;BME280;56688;50.234;19.292;2023-05-23T08:42:04;98021.81;;;37.88;20.08
69127;BME280;56688;50.234;19.292;2023-05-23T08:44:31;98023.95;;;38.15;20.94
69127;BME280;56688;50.234;19.292;2023-05-23T08:47:02;98021.92;;;37.98;19.78
69127;BME280;56688;50.234;19.292;2023-05-23T08:49:44;98020.41;;;37.31;19.92
69127;BME280;56688;50.234;19.292;2023-05-23T08:52:13;98021.16;;;36.45;21.51
69127;BME280;56688;50.234;19.292;2023-05-23T08:54:43;98022.20;;;35.91;21.59
69127;BME280;56688;50.234;19.292;2023-05-23T08:57:13;98017.58;;;35.59;21.79
69127;BME280;56688;50.234;19.292;2023-05-23T08:59:44;98011.58;;;35.39;21.87
69127;BME280;56688;50.234;19.292;2023-05-23T09:02:13;98008.34;;;35.37;21.45
69127;BME280;56688;50.234;19.292;2023-05-23T09:04:40;98005.33;;;35.43;21.41
69127;BME280;56688;50.234;19.292;2023-05-23T09:07:19;98002.75;;;35.31;21.85
69127;BME280;56688;50.234;19.292;2023-05-23T09:09:47;98000.29;;;34.93;21.96
69127;BME280;56688;50.234;19.292;2023-05-23T09:12:15;98002.01;;;34.70;22.35
69127;BME280;56688;50.234;19.292;2023-05-23T09:14:44;97998.61;;;34.80;23.62
69127;BME280;56688;50.234;19.292;2023-05-23T09:17:16;97998.17;;;35.04;24.05
69127;BME280;56688;50.234;19.292;2023-05-23T09:19:44;97994.77;;;35.29;22.73
69127;BME280;56688;50.234;19.292;2023-05-23T09:22:24;98000.57;;;35.47;22.48
69127;BME280;56688;50.234;19.292;2023-05-23T09:25:04;97998.19;;;35.47;21.70
69127;BME280;56688;50.234;19.292;2023-05-23T09:27:31;97999.08;;;35.48;20.92
69127;BME280;56688;50.234;19.292;2023-05-23T09:30:04;97996.00;;;35.24;22.02
69127;BME280;56688;50.234;19.292;2023-05-23T09:32:31;97999.14;;;35.04;21.65
69127;BME280;56688;50.234;19.292;2023-05-23T09:35:00;97992.03;;;35.17;22.15
69127;BME280;56688;50.234;19.292;2023-05-23T09:37:44;97993.58;;;35.36;21.75
69127;BME280;56688;50.234;19.292;2023-05-23T09:40:13;97988.42;;;35.15;21.42
69127;BME280;56688;50.234;19.292;2023-05-23T09:42:47;97987.30;;;34.68;21.21
69127;BME280;56688;50.234;19.292;2023-05-23T09:45:15;97985.92;;;34.57;22.43
69127;BME280;56688;50.234;19.292;2023-05-23T09:47:50;97981.84;;;34.69;21.34
69127;BME280;56688;50.234;19.292;2023-05-23T09:50:18;97973.60;;;34.82;20.93
69127;BME280;56688;50.234;19.292;2023-05-23T09:52:45;97970.62;;;35.00;22.13
69127;BME280;56688;50.234;19.292;2023-05-23T09:55:14;97970.59;;;34.85;22.96
69127;BME280;56688;50.234;19.292;2023-05-23T09:57:42;97971.11;;;34.17;22.36
69127;BME280;56688;50.234;19.292;2023-05-23T10:00:10;97971.40;;;33.54;23.15
69127;BME280;56688;50.234;19.292;2023-05-23T10:08:01;97969.37;;;32.36;23.57
69127;BME280;56688;50.234;19.292;2023-05-23T10:10:31;97977.38;;;32.12;25.10
69127;BME280;56688;50.234;19.292;2023-05-23T10:13:02;97975.64;;;31.68;24.34
69127;BME280;56688;50.234;19.292;2023-05-23T10:15:37;97969.75;;;30.95;25.28
69127;BME280;56688;50.234;19.292;2023-05-23T10:18:09;97965.31;;;30.46;26.12
69127;BME280;56688;50.234;19.292;2023-05-23T10:20:38;97958.90;;;30.21;27.53
69127;BME280;56688;50.234;19.292;2023-05-23T10:23:07;97962.71;;;29.99;26.20
69127;BME280;56688;50.234;19.292;2023-05-23T10:25:34;97959.51;;;29.75;27.89
69127;BME280;56688;50.234;19.292;2023-05-23T10:28:03;97961.57;;;29.61;28.56
69127;BME280;56688;50.234;19.292;2023-05-23T10:30:31;97958.54;;;29.52;28.59
69127;BME280;56688;50.234;19.292;2023-05-23T10:32:58;97958.16;;;29.36;27.66
69127;BME280;56688;50.234;19.292;2023-05-23T10:35:51;97956.03;;;29.18;29.04
69127;BME280;56688;50.234;19.292;2023-05-23T10:38:33;97954.25;;;29.22;30.44
69127;BME280;56688;50.234;19.292;2023-05-23T10:41:12;97949.33;;;29.32;31.07
69127;BME280;56688;50.234;19.292;2023-05-23T10:46:13;97957.64;;;29.55;29.87
69127;BME280;56688;50.234;19.292;2023-05-23T10:48:42;97954.55;;;29.51;28.07
69127;BME280;56688;50.234;19.292;2023-05-23T10:51:11;97952.62;;;29.44;26.90
69127;BME280;56688;50.234;19.292;2023-05-23T10:53:42;97948.97;;;29.48;27.81
69127;BME280;56688;50.234;19.292;2023-05-23T10:56:22;97946.95;;;29.39;29.19
69127;BME280;56688;50.234;19.292;2023-05-23T10:58:54;97940.19;;;29.49;27.76
69127;BME280;56688;50.234;19.292;2023-05-23T11:01:22;97935.23;;;29.66;28.64
69127;BME280;56688;50.234;19.292;2023-05-23T11:03:51;97935.15;;;29.60;29.34
69127;BME280;56688;50.234;19.292;2023-05-23T11:09:09;97924.91;;;29.65;27.41
69127;BME280;56688;50.234;19.292;2023-05-23T11:11:54;97933.89;;;29.50;27.78
69127;BME280;56688;50.234;19.292;2023-05-23T11:16:52;97925.77;;;29.56;29.27
69127;BME280;56688;50.234;19.292;2023-05-23T11:21:55;97918.60;;;29.46;29.08
69127;BME280;56688;50.234;19.292;2023-05-23T11:24:22;97914.12;;;29.65;29.15
69127;BME280;56688;50.234;19.292;2023-05-23T11:26:56;97910.73;;;29.93;29.68
69127;BME280;56688;50.234;19.292;2023-05-23T11:29:27;97909.89;;;30.19;29.06
69127;BME280;56688;50.234;19.292;2023-05-23T11:31:56;97905.19;;;30.53;28.61
69127;BME280;56688;50.234;19.292;2023-05-23T11:34:25;97902.11;;;30.89;26.87
69127;BME280;56688;50.234;19.292;2023-05-23T11:36:54;97896.17;;;31.26;28.01
69127;BME280;56688;50.234;19.292;2023-05-23T11:39:22;97900.73;;;31.62;27.69
69127;BME280;56688;50.234;19.292;2023-05-23T11:41:58;97894.70;;;31.90;26.43
69127;BME280;56688;50.234;19.292;2023-05-23T11:44:26;97887.20;;;32.35;25.70
69127;BME280;56688;50.234;19.292;2023-05-23T11:47:02;97884.54;;;32.79;26.86
69127;BME280;56688;50.234;19.292;2023-05-23T11:49:30;97881.31;;;33.33;26.32
69127;BME280;56688;50.234;19.292;2023-05-23T11:51:58;97880.96;;;33.62;25.23
69127;BME280;56688;50.234;19.292;2023-05-23T11:54:25;97883.79;;;33.80;23.89
69127;BME280;56688;50.234;19.292;2023-05-23T11:56:54;97880.52;;;34.18;24.67
69127;BME280;56688;50.234;19.292;2023-05-23T11:59:22;97882.94;;;34.39;23.28
69127;BME280;56688;50.234;19.292;2023-05-23T12:01:49;97880.40;;;34.49;23.27
69127;BME280;56688;50.234;19.292;2023-05-23T12:04:16;97882.92;;;34.62;22.82
69127;BME280;56688;50.234;19.292;2023-05-23T12:06:46;97876.46;;;34.82;24.02
69127;BME280;56688;50.234;19.292;2023-05-23T12:09:14;97868.50;;;35.28;23.35
69127;BME280;56688;50.234;19.292;2023-05-23T12:11:42;97868.77;;;35.40;24.64
69127;BME280;56688;50.234;19.292;2023-05-23T12:14:14;97872.02;;;35.57;23.84
69127;BME280;56688;50.234;19.292;2023-05-23T12:16:43;97877.93;;;35.68;23.30
69127;BME280;56688;50.234;19.292;2023-05-23T12:19:13;97879.23;;;35.52;23.50
69127;BME280;56688;50.234;19.292;2023-05-23T12:21:44;97878.97;;;35.28;23.16
69127;BME280;56688;50.234;19.292;2023-05-23T12:27:15;97872.08;;;34.98;24.07
69127;BME280;56688;50.234;19.292;2023-05-23T12:29:49;97869.14;;;34.49;24.46
69127;BME280;56688;50.234;19.292;2023-05-23T12:32:17;97869.70;;;33.85;23.89
69127;BME280;56688;50.234;19.292;2023-05-23T12:34:45;97862.22;;;33.32;24.24
69127;BME280;56688;50.234;19.292;2023-05-23T12:37:12;97860.95;;;32.85;25.61
69127;BME280;56688;50.234;19.292;2023-05-23T12:39:44;97862.75;;;32.44;27.09
69127;BME280;56688;50.234;19.292;2023-05-23T12:42:11;97864.07;;;32.14;27.55
69127;BME280;56688;50.234;19.292;2023-05-23T12:44:40;97866.93;;;31.70;27.56
69127;BME280;56688;50.234;19.292;2023-05-23T12:47:07;97871.14;;;31.23;28.72
69127;BME280;56688;50.234;19.292;2023-05-23T12:49:34;97870.48;;;30.88;28.78
69127;BME280;56688;50.234;19.292;2023-05-23T12:52:01;97869.69;;;30.66;28.65
69127;BME280;56688;50.234;19.292;2023-05-23T12:54:28;97870.14;;;30.42;29.93
69127;BME280;56688;50.234;19.292;2023-05-23T12:56:55;97868.54;;;30.06;31.08
69127;BME280;56688;50.234;19.292;2023-05-23T12:59:22;97870.94;;;29.69;30.54
69127;BME280;56688;50.234;19.292;2023-05-23T13:01:49;97878.02;;;29.35;31.13
69127;BME280;56688;50.234;19.292;2023-05-23T13:04:16;97888.53;;;28.93;32.41
69127;BME280;56688;50.234;19.292;2023-05-23T13:06:43;97911.86;;;28.39;33.38
69127;BME280;56688;50.234;19.292;2023-05-23T13:09:10;97924.71;;;27.82;34.97
69127;BME280;56688;50.234;19.292;2023-05-23T13:11:37;97934.86;;;27.32;36.44
69127;BME280;56688;50.234;19.292;2023-05-23T13:14:04;97941.55;;;26.85;37.46
69127;BME280;56688;50.234;19.292;2023-05-23T13:16:32;97937.90;;;26.33;39.07
69127;BME280;56688;50.234;19.292;2023-05-23T13:18:59;97944.29;;;25.81;40.48
69127;BME280;56688;50.234;19.292;2023-05-23T13:21:26;97946.45;;;25.10;42.70
69127;BME280;56688;50.234;19.292;2023-05-23T13:23:53;97945.82;;;24.64;44.24
69127;BME280;56688;50.234;19.292;2023-05-23T13:26:20;97950.31;;;24.30;46.11